sensor_id;sensor_type;location;lat;lon;timestamp;P1;durP1;ratioP1;P2;durP2;ratioP2
51732;SDS011;39139;53.144;6.244;2022-07-29T00:00:14;1.45;;;1.00;;
51732;SDS011;39139;53.144;6.244;2022-07-29T00:02:40;4.55;;;1.20;;
51732;SDS011;39139;53.144;6.244;2022-07-29T00:05:06;2.92;;;1.35;;
51732;SDS011;39139;53.144;6.244;2022-07-29T00:07:33;2.65;;;1.00;;
51732;SDS011;39139;53.144;6.244;2022-07-29T00:09:59;2.60;;;1.10;;
51732;SDS011;39139;53.144;6.244;2022-07-29T00:12:25;4.47;;;1.45;;
51732;SDS011;39139;53.144;6.244;2022-07-29T00:14:51;2.08;;;1.10;;
51732;SDS011;39139;53.144;6.244;2022-07-29T00:17:16;5.43;;;1.27;;
51732;SDS011;39139;53.144;6.244;2022-07-29T00:19:42;1.80;;;1.13;;
51732;SDS011;39139;53.144;6.244;2022-07-29T00:22:08;1.98;;;1.20;;
51732;SDS011;39139;53.144;6.244;2022-07-29T00:24:33;1.98;;;1.02;;
51732;SDS011;39139;53.144;6.244;2022-07-29T00:26:59;5.22;;;1.40;;
51732;SDS011;39139;53.144;6.244;2022-07-29T00:29:24;4.25;;;1.42;;
51732;SDS011;39139;53.144;6.244;2022-07-29T00:31:50;3.95;;;1.88;;
51732;SDS011;39139;53.144;6.244;2022-07-29T00:34:16;4.20;;;1.60;;
51732;SDS011;39139;53.144;6.244;2022-07-29T00:37:01;5.43;;;1.20;;
51732;SDS011;39139;53.144;6.244;2022-07-29T00:39:26;2.00;;;1.33;;
51732;SDS011;39139;53.144;6.244;2022-07-29T00:41:52;3.33;;;1.35;;
51732;SDS011;39139;53.144;6.244;2022-07-29T00:44:18;4.20;;;1.45;;
51732;SDS011;39139;53.144;6.244;2022-07-29T00:46:44;3.30;;;1.05;;
51732;SDS011;39139;53.144;6.244;2022-07-29T00:49:09;4.28;;;1.40;;
51732;SDS011;39139;53.144;6.244;2022-07-29T00:51:35;2.15;;;1.00;;
51732;SDS011;39139;53.144;6.244;2022-07-29T00:54:03;2.97;;;1.25;;
51732;SDS011;39139;53.144;6.244;2022-07-29T00:56:30;4.35;;;1.42;;
51732;SDS011;39139;53.144;6.244;2022-07-29T00:58:56;3.08;;;1.58;;
51732;SDS011;39139;53.144;6.244;2022-07-29T01:01:23;1.98;;;1.30;;
51732;SDS011;39139;53.144;6.244;2022-07-29T01:03:49;3.40;;;1.60;;
51732;SDS011;39139;53.144;6.244;2022-07-29T01:06:18;3.60;;;1.23;;
51732;SDS011;39139;53.144;6.244;2022-07-29T01:08:47;6.05;;;1.45;;
51732;SDS011;39139;53.144;6.244;2022-07-29T01:13:41;2.33;;;1.15;;
51732;SDS011;39139;53.144;6.244;2022-07-29T01:16:13;3.22;;;0.85;;
51732;SDS011;39139;53.144;6.244;2022-07-29T01:18:52;1.40;;;1.27;;
51732;SDS011;39139;53.144;6.244;2022-07-29T01:32:11;3.50;;;1.73;;
51732;SDS011;39139;53.144;6.244;2022-07-29T01:34:45;2.63;;;1.17;;
51732;SDS011;39139;53.144;6.244;2022-07-29T01:37:28;2.75;;;1.83;;
51732;SDS011;39139;53.144;6.244;2022-07-29T01:39:58;3.60;;;1.52;;
51732;SDS011;39139;53.144;6.244;2022-07-29T01:42:32;1.92;;;1.38;;
51732;SDS011;39139;53.144;6.244;2022-07-29T01:45:03;1.20;;;1.08;;
51732;SDS011;39139;53.144;6.244;2022-07-29T01:47:40;4.57;;;1.58;;
51732;SDS011;39139;53.144;6.244;2022-07-29T01:50:11;4.20;;;1.77;;
51732;SDS011;39139;53.144;6.244;2022-07-29T01:52:42;4.88;;;1.67;;
51732;SDS011;39139;53.144;6.244;2022-07-29T01:55:13;6.90;;;1.55;;
51732;SDS011;39139;53.144;6.244;2022-07-29T01:57:42;4.30;;;1.55;;
51732;SDS011;39139;53.144;6.244;2022-07-29T02:00:09;5.95;;;1.75;;
51732;SDS011;39139;53.144;6.244;2022-07-29T02:02:35;5.13;;;1.88;;
51732;SDS011;39139;53.144;6.244;2022-07-29T02:05:04;2.22;;;1.50;;
51732;SDS011;39139;53.144;6.244;2022-07-29T02:07:32;4.55;;;2.17;;
51732;SDS011;39139;53.144;6.244;2022-07-29T02:10:00;5.57;;;2.17;;
51732;SDS011;39139;53.144;6.244;2022-07-29T02:12:28;4.30;;;1.80;;
51732;SDS011;39139;53.144;6.244;2022-07-29T02:14:56;4.07;;;1.92;;
51732;SDS011;39139;53.144;6.244;2022-07-29T02:17:26;2.95;;;1.50;;
51732;SDS011;39139;53.144;6.244;2022-07-29T02:19:57;4.15;;;1.85;;
51732;SDS011;39139;53.144;6.244;2022-07-29T02:22:25;6.77;;;2.30;;
51732;SDS011;39139;53.144;6.244;2022-07-29T02:24:54;7.15;;;2.38;;
51732;SDS011;39139;53.144;6.244;2022-07-29T02:27:21;2.28;;;1.67;;
51732;SDS011;39139;53.144;6.244;2022-07-29T02:29:48;1.77;;;1.60;;
51732;SDS011;39139;53.144;6.244;2022-07-29T02:32:16;2.03;;;1.80;;
51732;SDS011;39139;53.144;6.244;2022-07-29T02:34:44;3.47;;;2.13;;
51732;SDS011;39139;53.144;6.244;2022-07-29T02:37:11;5.18;;;1.83;;
51732;SDS011;39139;53.144;6.244;2022-07-29T02:39:39;1.90;;;1.42;;
51732;SDS011;39139;53.144;6.244;2022-07-29T02:42:10;5.90;;;2.40;;
51732;SDS011;39139;53.144;6.244;2022-07-29T02:44:38;8.23;;;1.70;;
51732;SDS011;39139;53.144;6.244;2022-07-29T02:47:49;3.28;;;2.45;;
51732;SDS011;39139;53.144;6.244;2022-07-29T02:49:57;5.53;;;1.80;;
51732;SDS011;39139;53.144;6.244;2022-07-29T02:55:31;2.05;;;1.73;;
51732;SDS011;39139;53.144;6.244;2022-07-29T02:58:19;2.05;;;1.60;;
51732;SDS011;39139;53.144;6.244;2022-07-29T03:00:55;2.67;;;1.73;;
51732;SDS011;39139;53.144;6.244;2022-07-29T03:03:24;2.80;;;2.00;;
51732;SDS011;39139;53.144;6.244;2022-07-29T03:05:56;1.63;;;1.40;;
51732;SDS011;39139;53.144;6.244;2022-07-29T03:08:24;4.68;;;2.17;;
51732;SDS011;39139;53.144;6.244;2022-07-29T03:10:51;4.95;;;1.80;;
51732;SDS011;39139;53.144;6.244;2022-07-29T03:13:18;2.90;;;1.52;;
51732;SDS011;39139;53.144;6.244;2022-07-29T03:15:44;3.15;;;1.95;;
51732;SDS011;39139;53.144;6.244;2022-07-29T03:18:12;2.50;;;1.80;;
51732;SDS011;39139;53.144;6.244;2022-07-29T03:20:39;6.00;;;1.73;;
51732;SDS011;39139;53.144;6.244;2022-07-29T03:23:05;2.92;;;1.80;;
51732;SDS011;39139;53.144;6.244;2022-07-29T03:25:33;5.47;;;2.05;;
51732;SDS011;39139;53.144;6.244;2022-07-29T03:27:58;7.65;;;2.08;;
51732;SDS011;39139;53.144;6.244;2022-07-29T03:30:24;3.45;;;1.63;;
51732;SDS011;39139;53.144;6.244;2022-07-29T03:32:50;4.15;;;1.92;;
51732;SDS011;39139;53.144;6.244;2022-07-29T03:35:21;5.70;;;1.75;;
51732;SDS011;39139;53.144;6.244;2022-07-29T03:40:16;2.28;;;1.50;;
51732;SDS011;39139;53.144;6.244;2022-07-29T03:42:48;4.10;;;1.67;;
51732;SDS011;39139;53.144;6.244;2022-07-29T03:45:17;2.20;;;1.58;;
51732;SDS011;39139;53.144;6.244;2022-07-29T03:47:45;1.63;;;1.35;;
51732;SDS011;39139;53.144;6.244;2022-07-29T03:50:15;3.78;;;1.35;;
51732;SDS011;39139;53.144;6.244;2022-07-29T03:52:42;4.90;;;1.60;;
51732;SDS011;39139;53.144;6.244;2022-07-29T03:55:08;2.70;;;1.42;;
51732;SDS011;39139;53.144;6.244;2022-07-29T03:57:34;4.80;;;1.27;;
51732;SDS011;39139;53.144;6.244;2022-07-29T04:00:01;2.83;;;1.52;;
51732;SDS011;39139;53.144;6.244;2022-07-29T04:02:28;1.90;;;1.00;;
51732;SDS011;39139;53.144;6.244;2022-07-29T04:04:54;3.35;;;1.02;;
51732;SDS011;39139;53.144;6.244;2022-07-29T04:07:20;6.95;;;1.60;;
51732;SDS011;39139;53.144;6.244;2022-07-29T04:09:45;4.35;;;1.40;;
51732;SDS011;39139;53.144;6.244;2022-07-29T04:12:11;1.48;;;1.20;;
51732;SDS011;39139;53.144;6.244;2022-07-29T04:14:37;4.80;;;1.27;;
51732;SDS011;39139;53.144;6.244;2022-07-29T04:17:03;2.15;;;1.33;;
51732;SDS011;39139;53.144;6.244;2022-07-29T04:19:29;6.85;;;1.17;;
51732;SDS011;39139;53.144;6.244;2022-07-29T04:21:56;3.95;;;1.27;;
51732;SDS011;39139;53.144;6.244;2022-07-29T04:24:22;4.47;;;1.48;;
51732;SDS011;39139;53.144;6.244;2022-07-29T04:26:48;6.15;;;2.17;;
51732;SDS011;39139;53.144;6.244;2022-07-29T04:29:13;5.30;;;1.52;;
51732;SDS011;39139;53.144;6.244;2022-07-29T04:31:40;7.25;;;2.17;;
51732;SDS011;39139;53.144;6.244;2022-07-29T04:34:06;4.35;;;1.80;;
51732;SDS011;39139;53.144;6.244;2022-07-29T04:36:32;2.17;;;1.40;;
51732;SDS011;39139;53.144;6.244;2022-07-29T04:38:58;3.65;;;1.85;;
51732;SDS011;39139;53.144;6.244;2022-07-29T04:41:24;2.08;;;1.30;;
51732;SDS011;39139;53.144;6.244;2022-07-29T04:43:49;3.85;;;1.63;;
51732;SDS011;39139;53.144;6.244;2022-07-29T04:46:15;3.22;;;1.70;;
51732;SDS011;39139;53.144;6.244;2022-07-29T04:48:41;4.95;;;1.70;;
51732;SDS011;39139;53.144;6.244;2022-07-29T04:51:06;4.28;;;1.13;;
51732;SDS011;39139;53.144;6.244;2022-07-29T04:53:32;3.35;;;1.60;;
51732;SDS011;39139;53.144;6.244;2022-07-29T04:55:57;2.03;;;1.42;;
51732;SDS011;39139;53.144;6.244;2022-07-29T04:58:23;3.67;;;1.10;;
51732;SDS011;39139;53.144;6.244;2022-07-29T05:00:49;8.10;;;1.17;;
51732;SDS011;39139;53.144;6.244;2022-07-29T05:03:15;4.45;;;1.52;;
51732;SDS011;39139;53.144;6.244;2022-07-29T05:05:41;2.00;;;1.70;;
51732;SDS011;39139;53.144;6.244;2022-07-29T05:08:07;4.28;;;1.60;;
51732;SDS011;39139;53.144;6.244;2022-07-29T05:10:33;3.90;;;1.83;;
51732;SDS011;39139;53.144;6.244;2022-07-29T05:13:02;4.65;;;1.45;;
51732;SDS011;39139;53.144;6.244;2022-07-29T05:18:01;3.22;;;1.23;;
51732;SDS011;39139;53.144;6.244;2022-07-29T05:20:27;3.47;;;1.55;;
51732;SDS011;39139;53.144;6.244;2022-07-29T05:22:57;4.22;;;1.20;;
51732;SDS011;39139;53.144;6.244;2022-07-29T05:25:24;4.90;;;1.70;;
51732;SDS011;39139;53.144;6.244;2022-07-29T05:27:52;8.85;;;2.40;;
51732;SDS011;39139;53.144;6.244;2022-07-29T05:30:18;3.40;;;1.50;;
51732;SDS011;39139;53.144;6.244;2022-07-29T05:32:43;5.05;;;1.67;;
51732;SDS011;39139;53.144;6.244;2022-07-29T05:35:09;10.43;;;1.80;;
51732;SDS011;39139;53.144;6.244;2022-07-29T05:37:35;3.13;;;1.20;;
51732;SDS011;39139;53.144;6.244;2022-07-29T05:40:01;3.28;;;1.27;;
51732;SDS011;39139;53.144;6.244;2022-07-29T05:42:27;2.40;;;1.50;;
51732;SDS011;39139;53.144;6.244;2022-07-29T05:44:54;4.22;;;1.45;;
51732;SDS011;39139;53.144;6.244;2022-07-29T05:47:20;3.90;;;1.42;;
51732;SDS011;39139;53.144;6.244;2022-07-29T05:49:46;4.25;;;1.52;;
51732;SDS011;39139;53.144;6.244;2022-07-29T05:52:11;3.95;;;1.13;;
51732;SDS011;39139;53.144;6.244;2022-07-29T05:54:40;7.28;;;1.85;;
51732;SDS011;39139;53.144;6.244;2022-07-29T05:57:06;3.55;;;1.65;;
51732;SDS011;39139;53.144;6.244;2022-07-29T05:59:35;4.18;;;1.35;;
51732;SDS011;39139;53.144;6.244;2022-07-29T06:02:01;3.97;;;1.55;;
51732;SDS011;39139;53.144;6.244;2022-07-29T06:04:29;4.38;;;1.10;;
51732;SDS011;39139;53.144;6.244;2022-07-29T06:06:56;2.33;;;1.80;;
51732;SDS011;39139;53.144;6.244;2022-07-29T06:09:21;1.90;;;1.55;;
51732;SDS011;39139;53.144;6.244;2022-07-29T06:11:47;4.22;;;1.30;;
51732;SDS011;39139;53.144;6.244;2022-07-29T06:14:13;3.20;;;1.92;;
51732;SDS011;39139;53.144;6.244;2022-07-29T06:16:39;2.72;;;1.42;;
51732;SDS011;39139;53.144;6.244;2022-07-29T06:19:05;2.72;;;1.38;;
51732;SDS011;39139;53.144;6.244;2022-07-29T06:21:31;4.28;;;1.63;;
51732;SDS011;39139;53.144;6.244;2022-07-29T06:23:57;5.63;;;1.48;;
51732;SDS011;39139;53.144;6.244;2022-07-29T06:26:22;3.35;;;1.73;;
51732;SDS011;39139;53.144;6.244;2022-07-29T06:28:48;3.60;;;1.48;;
51732;SDS011;39139;53.144;6.244;2022-07-29T06:31:14;4.85;;;1.38;;
51732;SDS011;39139;53.144;6.244;2022-07-29T06:33:39;5.63;;;1.70;;
51732;SDS011;39139;53.144;6.244;2022-07-29T06:36:05;1.75;;;1.45;;
51732;SDS011;39139;53.144;6.244;2022-07-29T06:38:32;4.45;;;2.03;;
51732;SDS011;39139;53.144;6.244;2022-07-29T06:40:58;4.15;;;2.10;;
51732;SDS011;39139;53.144;6.244;2022-07-29T06:43:36;3.90;;;1.63;;
51732;SDS011;39139;53.144;6.244;2022-07-29T06:46:06;4.30;;;1.30;;
51732;SDS011;39139;53.144;6.244;2022-07-29T06:48:38;6.28;;;1.80;;
51732;SDS011;39139;53.144;6.244;2022-07-29T06:51:04;6.40;;;1.77;;
51732;SDS011;39139;53.144;6.244;2022-07-29T06:53:31;2.20;;;1.40;;
51732;SDS011;39139;53.144;6.244;2022-07-29T06:55:58;6.00;;;1.40;;
51732;SDS011;39139;53.144;6.244;2022-07-29T06:58:25;3.83;;;1.35;;
51732;SDS011;39139;53.144;6.244;2022-07-29T07:00:52;4.38;;;1.33;;
51732;SDS011;39139;53.144;6.244;2022-07-29T07:03:18;4.22;;;1.65;;
51732;SDS011;39139;53.144;6.244;2022-07-29T07:05:44;5.72;;;1.50;;
51732;SDS011;39139;53.144;6.244;2022-07-29T07:08:13;5.68;;;1.50;;
51732;SDS011;39139;53.144;6.244;2022-07-29T07:10:39;2.95;;;1.63;;
51732;SDS011;39139;53.144;6.244;2022-07-29T07:13:05;2.00;;;1.33;;
51732;SDS011;39139;53.144;6.244;2022-07-29T07:15:30;3.45;;;1.50;;
51732;SDS011;39139;53.144;6.244;2022-07-29T07:17:56;2.45;;;1.40;;
51732;SDS011;39139;53.144;6.244;2022-07-29T07:20:22;2.95;;;1.05;;
51732;SDS011;39139;53.144;6.244;2022-07-29T07:22:49;8.00;;;1.13;;
51732;SDS011;39139;53.144;6.244;2022-07-29T07:25:15;4.68;;;1.80;;
51732;SDS011;39139;53.144;6.244;2022-07-29T07:27:42;6.82;;;1.85;;
51732;SDS011;39139;53.144;6.244;2022-07-29T07:30:08;5.40;;;1.70;;
51732;SDS011;39139;53.144;6.244;2022-07-29T07:32:34;5.30;;;1.20;;
51732;SDS011;39139;53.144;6.244;2022-07-29T07:35:01;4.18;;;1.50;;
51732;SDS011;39139;53.144;6.244;2022-07-29T07:37:27;7.28;;;1.70;;
51732;SDS011;39139;53.144;6.244;2022-07-29T07:39:53;6.38;;;1.83;;
51732;SDS011;39139;53.144;6.244;2022-07-29T07:42:19;8.68;;;1.90;;
51732;SDS011;39139;53.144;6.244;2022-07-29T07:44:44;3.20;;;1.55;;
51732;SDS011;39139;53.144;6.244;2022-07-29T07:47:11;1.95;;;1.30;;
51732;SDS011;39139;53.144;6.244;2022-07-29T07:49:37;5.88;;;1.58;;
51732;SDS011;39139;53.144;6.244;2022-07-29T07:52:03;2.75;;;1.27;;
51732;SDS011;39139;53.144;6.244;2022-07-29T07:54:29;6.78;;;1.83;;
51732;SDS011;39139;53.144;6.244;2022-07-29T07:56:55;4.43;;;2.13;;
51732;SDS011;39139;53.144;6.244;2022-07-29T07:59:21;3.92;;;1.75;;
51732;SDS011;39139;53.144;6.244;2022-07-29T08:01:47;3.55;;;1.50;;
51732;SDS011;39139;53.144;6.244;2022-07-29T08:04:13;4.88;;;1.30;;
51732;SDS011;39139;53.144;6.244;2022-07-29T08:06:39;4.43;;;1.50;;
51732;SDS011;39139;53.144;6.244;2022-07-29T08:09:04;4.10;;;1.67;;
51732;SDS011;39139;53.144;6.244;2022-07-29T08:11:30;3.65;;;1.50;;
51732;SDS011;39139;53.144;6.244;2022-07-29T08:13:56;3.10;;;1.48;;
51732;SDS011;39139;53.144;6.244;2022-07-29T08:16:22;4.93;;;1.25;;
51732;SDS011;39139;53.144;6.244;2022-07-29T08:18:50;6.45;;;2.10;;
51732;SDS011;39139;53.144;6.244;2022-07-29T08:21:16;11.43;;;4.82;;
51732;SDS011;39139;53.144;6.244;2022-07-29T08:23:45;4.55;;;4.15;;
51732;SDS011;39139;53.144;6.244;2022-07-29T08:26:14;10.18;;;1.73;;
51732;SDS011;39139;53.144;6.244;2022-07-29T08:28:41;6.47;;;2.15;;
51732;SDS011;39139;53.144;6.244;2022-07-29T08:31:12;5.65;;;1.58;;
51732;SDS011;39139;53.144;6.244;2022-07-29T08:33:39;3.70;;;1.80;;
51732;SDS011;39139;53.144;6.244;2022-07-29T08:36:05;5.00;;;1.50;;
51732;SDS011;39139;53.144;6.244;2022-07-29T08:38:31;6.95;;;1.80;;
51732;SDS011;39139;53.144;6.244;2022-07-29T08:40:57;2.40;;;1.30;;
51732;SDS011;39139;53.144;6.244;2022-07-29T08:43:25;8.50;;;4.68;;
51732;SDS011;39139;53.144;6.244;2022-07-29T08:48:21;6.45;;;2.70;;
51732;SDS011;39139;53.144;6.244;2022-07-29T08:50:48;3.13;;;1.95;;
51732;SDS011;39139;53.144;6.244;2022-07-29T08:53:18;6.53;;;3.63;;
51732;SDS011;39139;53.144;6.244;2022-07-29T08:55:44;11.80;;;8.82;;
51732;SDS011;39139;53.144;6.244;2022-07-29T08:58:11;8.23;;;4.65;;
51732;SDS011;39139;53.144;6.244;2022-07-29T09:00:41;18.90;;;9.05;;
51732;SDS011;39139;53.144;6.244;2022-07-29T09:03:15;8.68;;;5.35;;
51732;SDS011;39139;53.144;6.244;2022-07-29T09:05:43;5.03;;;2.70;;
51732;SDS011;39139;53.144;6.244;2022-07-29T09:08:10;4.40;;;3.33;;
51732;SDS011;39139;53.144;6.244;2022-07-29T09:10:37;11.15;;;2.92;;
51732;SDS011;39139;53.144;6.244;2022-07-29T09:13:03;7.72;;;5.97;;
51732;SDS011;39139;53.144;6.244;2022-07-29T09:15:29;10.63;;;5.78;;
51732;SDS011;39139;53.144;6.244;2022-07-29T09:17:54;10.93;;;6.10;;
51732;SDS011;39139;53.144;6.244;2022-07-29T09:20:21;6.93;;;4.13;;
51732;SDS011;39139;53.144;6.244;2022-07-29T09:22:48;7.00;;;3.58;;
51732;SDS011;39139;53.144;6.244;2022-07-29T09:28:17;2.80;;;1.75;;
51732;SDS011;39139;53.144;6.244;2022-07-29T09:30:50;7.97;;;3.17;;
51732;SDS011;39139;53.144;6.244;2022-07-29T09:33:16;3.95;;;1.75;;
51732;SDS011;39139;53.144;6.244;2022-07-29T09:35:41;7.18;;;1.90;;
51732;SDS011;39139;53.144;6.244;2022-07-29T09:38:13;7.25;;;1.83;;
51732;SDS011;39139;53.144;6.244;2022-07-29T09:40:39;9.07;;;1.88;;
51732;SDS011;39139;53.144;6.244;2022-07-29T09:43:12;2.70;;;1.60;;
51732;SDS011;39139;53.144;6.244;2022-07-29T09:45:38;6.53;;;1.80;;
51732;SDS011;39139;53.144;6.244;2022-07-29T09:48:17;4.80;;;1.92;;
51732;SDS011;39139;53.144;6.244;2022-07-29T09:50:49;4.55;;;2.22;;
51732;SDS011;39139;53.144;6.244;2022-07-29T09:55:57;3.03;;;1.83;;
51732;SDS011;39139;53.144;6.244;2022-07-29T09:58:23;7.78;;;3.33;;
51732;SDS011;39139;53.144;6.244;2022-07-29T10:00:50;5.55;;;2.15;;
51732;SDS011;39139;53.144;6.244;2022-07-29T10:03:17;6.00;;;2.70;;
51732;SDS011;39139;53.144;6.244;2022-07-29T10:05:43;6.10;;;3.72;;
51732;SDS011;39139;53.144;6.244;2022-07-29T10:08:10;4.95;;;2.35;;
51732;SDS011;39139;53.144;6.244;2022-07-29T10:10:38;4.15;;;2.35;;
51732;SDS011;39139;53.144;6.244;2022-07-29T10:13:06;6.03;;;2.72;;
51732;SDS011;39139;53.144;6.244;2022-07-29T10:15:35;12.95;;;2.45;;
51732;SDS011;39139;53.144;6.244;2022-07-29T10:20:29;2.75;;;1.83;;
51732;SDS011;39139;53.144;6.244;2022-07-29T10:22:55;7.22;;;2.58;;
51732;SDS011;39139;53.144;6.244;2022-07-29T10:25:22;5.75;;;2.67;;
51732;SDS011;39139;53.144;6.244;2022-07-29T10:27:49;5.25;;;2.45;;
51732;SDS011;39139;53.144;6.244;2022-07-29T10:30:16;6.05;;;2.13;;
51732;SDS011;39139;53.144;6.244;2022-07-29T10:38:43;6.45;;;2.00;;
51732;SDS011;39139;53.144;6.244;2022-07-29T10:43:54;4.07;;;2.15;;
51732;SDS011;39139;53.144;6.244;2022-07-29T10:46:27;2.38;;;1.80;;
51732;SDS011;39139;53.144;6.244;2022-07-29T10:49:06;7.53;;;1.90;;
51732;SDS011;39139;53.144;6.244;2022-07-29T10:51:50;5.20;;;2.40;;
51732;SDS011;39139;53.144;6.244;2022-07-29T10:59:43;9.15;;;1.95;;
51732;SDS011;39139;53.144;6.244;2022-07-29T11:07:23;6.43;;;2.28;;
51732;SDS011;39139;53.144;6.244;2022-07-29T11:15:07;9.65;;;3.33;;
51732;SDS011;39139;53.144;6.244;2022-07-29T11:25:45;2.50;;;1.52;;
51732;SDS011;39139;53.144;6.244;2022-07-29T11:28:31;5.18;;;2.13;;
51732;SDS011;39139;53.144;6.244;2022-07-29T11:30:58;5.60;;;1.70;;
51732;SDS011;39139;53.144;6.244;2022-07-29T11:33:29;4.45;;;2.00;;
51732;SDS011;39139;53.144;6.244;2022-07-29T11:36:09;5.38;;;2.05;;
51732;SDS011;39139;53.144;6.244;2022-07-29T11:38:36;3.83;;;2.30;;
51732;SDS011;39139;53.144;6.244;2022-07-29T11:43:52;7.75;;;2.83;;
51732;SDS011;39139;53.144;6.244;2022-07-29T11:49:06;5.07;;;2.30;;
51732;SDS011;39139;53.144;6.244;2022-07-29T11:51:34;6.85;;;3.15;;
51732;SDS011;39139;53.144;6.244;2022-07-29T11:54:01;8.63;;;3.05;;
51732;SDS011;39139;53.144;6.244;2022-07-29T11:56:29;6.40;;;2.95;;
51732;SDS011;39139;53.144;6.244;2022-07-29T11:59:05;7.40;;;3.25;;
51732;SDS011;39139;53.144;6.244;2022-07-29T12:01:34;4.05;;;3.10;;
51732;SDS011;39139;53.144;6.244;2022-07-29T12:04:06;6.60;;;1.98;;
51732;SDS011;39139;53.144;6.244;2022-07-29T12:06:33;5.82;;;2.47;;
51732;SDS011;39139;53.144;6.244;2022-07-29T12:08:59;4.63;;;2.17;;
51732;SDS011;39139;53.144;6.244;2022-07-29T12:11:25;4.18;;;2.35;;
51732;SDS011;39139;53.144;6.244;2022-07-29T12:13:51;20.23;;;4.13;;
51732;SDS011;39139;53.144;6.244;2022-07-29T12:16:18;5.18;;;3.20;;
51732;SDS011;39139;53.144;6.244;2022-07-29T12:19:00;7.88;;;3.70;;
51732;SDS011;39139;53.144;6.244;2022-07-29T12:21:28;5.90;;;3.00;;
51732;SDS011;39139;53.144;6.244;2022-07-29T12:24:08;6.82;;;2.58;;
51732;SDS011;39139;53.144;6.244;2022-07-29T12:26:34;8.10;;;2.03;;
51732;SDS011;39139;53.144;6.244;2022-07-29T12:28:59;5.22;;;2.40;;
51732;SDS011;39139;53.144;6.244;2022-07-29T12:31:25;4.38;;;2.13;;
51732;SDS011;39139;53.144;6.244;2022-07-29T12:33:52;6.70;;;2.38;;
51732;SDS011;39139;53.144;6.244;2022-07-29T12:36:18;6.15;;;3.72;;
51732;SDS011;39139;53.144;6.244;2022-07-29T12:38:47;4.78;;;3.63;;
51732;SDS011;39139;53.144;6.244;2022-07-29T12:41:13;6.15;;;2.58;;
51732;SDS011;39139;53.144;6.244;2022-07-29T12:43:45;4.53;;;2.10;;
51732;SDS011;39139;53.144;6.244;2022-07-29T12:48:43;3.08;;;1.45;;
51732;SDS011;39139;53.144;6.244;2022-07-29T12:51:09;4.80;;;1.60;;
51732;SDS011;39139;53.144;6.244;2022-07-29T12:53:37;5.68;;;2.50;;
51732;SDS011;39139;53.144;6.244;2022-07-29T12:56:03;7.88;;;2.90;;
51732;SDS011;39139;53.144;6.244;2022-07-29T13:01:04;7.38;;;2.15;;
51732;SDS011;39139;53.144;6.244;2022-07-29T13:03:42;3.55;;;1.75;;
51732;SDS011;39139;53.144;6.244;2022-07-29T13:09:13;5.97;;;1.90;;
51732;SDS011;39139;53.144;6.244;2022-07-29T13:11:41;4.05;;;1.60;;
51732;SDS011;39139;53.144;6.244;2022-07-29T13:14:09;4.32;;;1.83;;
51732;SDS011;39139;53.144;6.244;2022-07-29T13:16:37;4.18;;;1.88;;
51732;SDS011;39139;53.144;6.244;2022-07-29T13:19:31;4.43;;;1.63;;
51732;SDS011;39139;53.144;6.244;2022-07-29T13:22:17;2.78;;;1.90;;
51732;SDS011;39139;53.144;6.244;2022-07-29T13:24:57;11.18;;;2.10;;
51732;SDS011;39139;53.144;6.244;2022-07-29T13:27:31;8.27;;;2.40;;
51732;SDS011;39139;53.144;6.244;2022-07-29T13:29:58;4.30;;;1.92;;
51732;SDS011;39139;53.144;6.244;2022-07-29T13:32:26;7.70;;;1.77;;
51732;SDS011;39139;53.144;6.244;2022-07-29T13:34:53;6.13;;;1.83;;
51732;SDS011;39139;53.144;6.244;2022-07-29T13:37:20;6.75;;;1.58;;
51732;SDS011;39139;53.144;6.244;2022-07-29T13:39:45;7.80;;;1.98;;
51732;SDS011;39139;53.144;6.244;2022-07-29T13:42:12;4.45;;;1.30;;
51732;SDS011;39139;53.144;6.244;2022-07-29T13:44:38;4.35;;;1.33;;
51732;SDS011;39139;53.144;6.244;2022-07-29T13:47:05;2.63;;;1.40;;
51732;SDS011;39139;53.144;6.244;2022-07-29T13:49:31;4.20;;;1.73;;
51732;SDS011;39139;53.144;6.244;2022-07-29T13:51:57;7.38;;;1.85;;
51732;SDS011;39139;53.144;6.244;2022-07-29T13:54:23;2.65;;;1.48;;
51732;SDS011;39139;53.144;6.244;2022-07-29T13:56:49;4.60;;;1.70;;
51732;SDS011;39139;53.144;6.244;2022-07-29T13:59:15;2.55;;;1.00;;
51732;SDS011;39139;53.144;6.244;2022-07-29T14:01:41;2.15;;;1.17;;
51732;SDS011;39139;53.144;6.244;2022-07-29T14:04:07;5.20;;;1.23;;
51732;SDS011;39139;53.144;6.244;2022-07-29T14:06:33;6.85;;;1.90;;
51732;SDS011;39139;53.144;6.244;2022-07-29T14:08:59;4.20;;;1.23;;
51732;SDS011;39139;53.144;6.244;2022-07-29T14:11:24;6.22;;;2.03;;
51732;SDS011;39139;53.144;6.244;2022-07-29T14:13:50;12.40;;;2.05;;
51732;SDS011;39139;53.144;6.244;2022-07-29T14:16:19;6.07;;;1.95;;
51732;SDS011;39139;53.144;6.244;2022-07-29T14:18:44;1.75;;;1.30;;
51732;SDS011;39139;53.144;6.244;2022-07-29T14:21:10;5.68;;;1.50;;
51732;SDS011;39139;53.144;6.244;2022-07-29T14:23:36;3.53;;;1.40;;
51732;SDS011;39139;53.144;6.244;2022-07-29T14:28:31;7.47;;;1.80;;
51732;SDS011;39139;53.144;6.244;2022-07-29T14:30:57;3.63;;;1.42;;
51732;SDS011;39139;53.144;6.244;2022-07-29T14:33:22;3.17;;;1.20;;
51732;SDS011;39139;53.144;6.244;2022-07-29T14:35:48;5.03;;;1.45;;
51732;SDS011;39139;53.144;6.244;2022-07-29T14:38:14;4.85;;;1.20;;
51732;SDS011;39139;53.144;6.244;2022-07-29T14:40:39;2.45;;;0.70;;
51732;SDS011;39139;53.144;6.244;2022-07-29T14:43:05;3.63;;;1.48;;
51732;SDS011;39139;53.144;6.244;2022-07-29T14:45:31;4.80;;;1.17;;
51732;SDS011;39139;53.144;6.244;2022-07-29T14:47:56;5.70;;;1.45;;
51732;SDS011;39139;53.144;6.244;2022-07-29T14:50:25;1.73;;;1.00;;
51732;SDS011;39139;53.144;6.244;2022-07-29T14:52:51;2.13;;;1.25;;
51732;SDS011;39139;53.144;6.244;2022-07-29T14:55:17;4.35;;;1.45;;
51732;SDS011;39139;53.144;6.244;2022-07-29T14:57:43;2.40;;;1.20;;
51732;SDS011;39139;53.144;6.244;2022-07-29T15:00:09;3.22;;;0.82;;
51732;SDS011;39139;53.144;6.244;2022-07-29T15:02:36;2.95;;;1.50;;
51732;SDS011;39139;53.144;6.244;2022-07-29T15:05:02;3.55;;;1.15;;
51732;SDS011;39139;53.144;6.244;2022-07-29T15:07:28;4.57;;;1.55;;
51732;SDS011;39139;53.144;6.244;2022-07-29T15:09:53;5.10;;;1.73;;
51732;SDS011;39139;53.144;6.244;2022-07-29T15:12:19;3.80;;;1.35;;
51732;SDS011;39139;53.144;6.244;2022-07-29T15:14:44;2.22;;;1.05;;
51732;SDS011;39139;53.144;6.244;2022-07-29T15:17:10;1.73;;;0.90;;
51732;SDS011;39139;53.144;6.244;2022-07-29T15:19:36;2.55;;;1.20;;
51732;SDS011;39139;53.144;6.244;2022-07-29T15:22:01;1.90;;;1.00;;
51732;SDS011;39139;53.144;6.244;2022-07-29T15:24:29;4.65;;;1.35;;
51732;SDS011;39139;53.144;6.244;2022-07-29T15:26:55;4.13;;;1.23;;
51732;SDS011;39139;53.144;6.244;2022-07-29T15:29:21;3.30;;;1.25;;
51732;SDS011;39139;53.144;6.244;2022-07-29T15:31:47;4.25;;;1.33;;
51732;SDS011;39139;53.144;6.244;2022-07-29T15:34:13;4.65;;;1.52;;
51732;SDS011;39139;53.144;6.244;2022-07-29T15:36:39;3.55;;;1.20;;
51732;SDS011;39139;53.144;6.244;2022-07-29T15:39:05;3.53;;;1.40;;
51732;SDS011;39139;53.144;6.244;2022-07-29T15:41:30;6.22;;;0.90;;
51732;SDS011;39139;53.144;6.244;2022-07-29T15:43:56;4.95;;;1.33;;
51732;SDS011;39139;53.144;6.244;2022-07-29T15:46:22;2.60;;;1.20;;
51732;SDS011;39139;53.144;6.244;2022-07-29T15:49:06;2.30;;;1.67;;
51732;SDS011;39139;53.144;6.244;2022-07-29T15:51:32;5.72;;;1.63;;
51732;SDS011;39139;53.144;6.244;2022-07-29T15:53:58;4.75;;;1.38;;
51732;SDS011;39139;53.144;6.244;2022-07-29T15:56:26;8.30;;;1.52;;
51732;SDS011;39139;53.144;6.244;2022-07-29T15:58:52;4.47;;;1.23;;
51732;SDS011;39139;53.144;6.244;2022-07-29T16:01:18;5.30;;;1.30;;
51732;SDS011;39139;53.144;6.244;2022-07-29T16:03:43;6.38;;;1.45;;
51732;SDS011;39139;53.144;6.244;2022-07-29T16:06:09;3.17;;;1.13;;
51732;SDS011;39139;53.144;6.244;2022-07-29T16:08:34;4.22;;;1.58;;
51732;SDS011;39139;53.144;6.244;2022-07-29T16:11:00;4.38;;;1.42;;